Terminal Aerodrome Forecast
Issued by NWS

Home | Current Version | Previous Version | Graphics & Text | Print | Product List | Glossary Off
Versions: 1 2 3 4 5 6 7 8 9 10 11 12 13 14 15 16

000
FTUS43 KTOP 290520
TAFFOE
TAF
KFOE 290520Z 2906/3006 02012KT P6SM OVC004
     FM290900 02014G20KT P6SM VCSH OVC004
     FM291100 03017G26KT 3SM RA BR OVC005
     FM291900 03015G22KT 5SM -RA BR OVC006=

USA.gov is the U.S. government's official web portal to all federal, state and local government web resources and services.